sensor_id;sensor_type;location;lat;lon;timestamp;P1;durP1;ratioP1;P2;durP2;ratioP2
69588;SDS011;56792;50.644;17.984;2022-07-29T00:05:15;6.00;;;2.60;;
69588;SDS011;56792;50.644;17.984;2022-07-29T00:11:47;5.50;;;2.70;;
69588;SDS011;56792;50.644;17.984;2022-07-29T00:14:46;5.20;;;2.50;;
69588;SDS011;56792;50.644;17.984;2022-07-29T00:17:37;5.80;;;2.70;;
69588;SDS011;56792;50.644;17.984;2022-07-29T00:21:04;5.60;;;2.70;;
69588;SDS011;56792;50.644;17.984;2022-07-29T00:44:30;5.80;;;2.60;;
69588;SDS011;56792;50.644;17.984;2022-07-29T00:56:53;5.70;;;2.60;;
69588;SDS011;56792;50.644;17.984;2022-07-29T01:00:01;5.00;;;2.50;;
69588;SDS011;56792;50.644;17.984;2022-07-29T01:03:47;6.10;;;2.70;;
69588;SDS011;56792;50.644;17.984;2022-07-29T01:17:24;5.50;;;2.60;;
69588;SDS011;56792;50.644;17.984;2022-07-29T05:26:00;4.80;;;1.90;;
69588;SDS011;56792;50.644;17.984;2022-07-29T05:28:42;4.30;;;1.40;;
69588;SDS011;56792;50.644;17.984;2022-07-29T05:31:27;4.30;;;1.90;;
69588;SDS011;56792;50.644;17.984;2022-07-29T05:34:08;4.20;;;1.80;;
69588;SDS011;56792;50.644;17.984;2022-07-29T05:36:46;5.20;;;2.10;;
69588;SDS011;56792;50.644;17.984;2022-07-29T05:39:16;4.70;;;1.90;;
69588;SDS011;56792;50.644;17.984;2022-07-29T05:41:45;5.00;;;2.40;;
69588;SDS011;56792;50.644;17.984;2022-07-29T05:44:19;6.40;;;3.70;;
69588;SDS011;56792;50.644;17.984;2022-07-29T05:46:53;4.20;;;2.10;;
69588;SDS011;56792;50.644;17.984;2022-07-29T05:49:23;4.40;;;2.00;;
69588;SDS011;56792;50.644;17.984;2022-07-29T05:51:55;4.30;;;2.10;;
69588;SDS011;56792;50.644;17.984;2022-07-29T05:54:29;4.50;;;2.00;;
69588;SDS011;56792;50.644;17.984;2022-07-29T06:06:10;6.20;;;2.20;;
69588;SDS011;56792;50.644;17.984;2022-07-29T06:08:53;7.00;;;2.20;;
69588;SDS011;56792;50.644;17.984;2022-07-29T06:58:02;4.10;;;2.60;;
69588;SDS011;56792;50.644;17.984;2022-07-29T07:00:58;5.60;;;2.10;;
69588;SDS011;56792;50.644;17.984;2022-07-29T07:06:59;7.70;;;2.20;;
69588;SDS011;56792;50.644;17.984;2022-07-29T10:23:51;6.90;;;3.20;;
69588;SDS011;56792;50.644;17.984;2022-07-29T10:26:54;6.30;;;3.30;;
69588;SDS011;56792;50.644;17.984;2022-07-29T10:29:53;5.60;;;2.90;;
69588;SDS011;56792;50.644;17.984;2022-07-29T10:47:47;5.70;;;2.80;;
69588;SDS011;56792;50.644;17.984;2022-07-29T10:51:00;4.40;;;2.90;;
69588;SDS011;56792;50.644;17.984;2022-07-29T11:09:26;7.10;;;2.90;;
69588;SDS011;56792;50.644;17.984;2022-07-29T11:15:25;7.80;;;2.70;;
69588;SDS011;56792;50.644;17.984;2022-07-29T11:18:06;6.50;;;2.10;;
69588;SDS011;56792;50.644;17.984;2022-07-29T11:20:47;4.70;;;2.60;;
69588;SDS011;56792;50.644;17.984;2022-07-29T11:23:28;3.90;;;2.20;;
69588;SDS011;56792;50.644;17.984;2022-07-29T11:26:20;5.10;;;2.40;;
69588;SDS011;56792;50.644;17.984;2022-07-29T11:29:02;4.30;;;2.50;;
69588;SDS011;56792;50.644;17.984;2022-07-29T11:31:44;5.30;;;2.20;;
69588;SDS011;56792;50.644;17.984;2022-07-29T11:34:27;4.60;;;2.40;;
69588;SDS011;56792;50.644;17.984;2022-07-29T11:37:22;5.90;;;2.50;;
69588;SDS011;56792;50.644;17.984;2022-07-29T11:40:27;5.00;;;2.50;;
69588;SDS011;56792;50.644;17.984;2022-07-29T11:43:05;5.50;;;3.10;;
69588;SDS011;56792;50.644;17.984;2022-07-29T11:45:47;4.90;;;2.50;;
69588;SDS011;56792;50.644;17.984;2022-07-29T11:48:25;5.30;;;2.60;;
69588;SDS011;56792;50.644;17.984;2022-07-29T11:51:14;6.80;;;2.40;;
69588;SDS011;56792;50.644;17.984;2022-07-29T11:53:52;4.20;;;2.30;;
69588;SDS011;56792;50.644;17.984;2022-07-29T11:56:32;4.80;;;2.40;;
69588;SDS011;56792;50.644;17.984;2022-07-29T11:59:15;6.30;;;2.30;;
69588;SDS011;56792;50.644;17.984;2022-07-29T12:01:54;6.20;;;2.60;;
69588;SDS011;56792;50.644;17.984;2022-07-29T12:04:49;6.60;;;2.30;;
69588;SDS011;56792;50.644;17.984;2022-07-29T12:07:28;5.80;;;2.10;;
69588;SDS011;56792;50.644;17.984;2022-07-29T12:10:08;4.30;;;2.40;;
69588;SDS011;56792;50.644;17.984;2022-07-29T12:12:51;5.80;;;2.50;;
69588;SDS011;56792;50.644;17.984;2022-07-29T16:15:13;6.40;;;4.40;;
69588;SDS011;56792;50.644;17.984;2022-07-29T16:17:43;7.70;;;4.80;;
69588;SDS011;56792;50.644;17.984;2022-07-29T16:20:34;6.40;;;4.80;;
69588;SDS011;56792;50.644;17.984;2022-07-29T16:23:16;7.70;;;5.30;;
69588;SDS011;56792;50.644;17.984;2022-07-29T16:25:54;6.80;;;5.10;;
69588;SDS011;56792;50.644;17.984;2022-07-29T16:28:32;7.40;;;5.20;;
69588;SDS011;56792;50.644;17.984;2022-07-29T16:37:38;9.00;;;5.50;;
69588;SDS011;56792;50.644;17.984;2022-07-29T17:34:32;7.30;;;5.30;;
69588;SDS011;56792;50.644;17.984;2022-07-29T17:37:06;7.20;;;5.40;;
69588;SDS011;56792;50.644;17.984;2022-07-29T17:39:41;8.00;;;5.30;;
69588;SDS011;56792;50.644;17.984;2022-07-29T17:42:12;8.00;;;5.10;;
69588;SDS011;56792;50.644;17.984;2022-07-29T17:44:44;7.30;;;5.40;;
69588;SDS011;56792;50.644;17.984;2022-07-29T17:47:14;8.60;;;5.80;;
69588;SDS011;56792;50.644;17.984;2022-07-29T17:49:47;6.90;;;5.40;;
69588;SDS011;56792;50.644;17.984;2022-07-29T17:52:20;8.40;;;5.70;;
69588;SDS011;56792;50.644;17.984;2022-07-29T17:54:51;7.20;;;5.10;;
69588;SDS011;56792;50.644;17.984;2022-07-29T17:57:26;8.60;;;5.20;;
69588;SDS011;56792;50.644;17.984;2022-07-29T17:59:56;6.30;;;4.70;;
69588;SDS011;56792;50.644;17.984;2022-07-29T18:02:26;8.10;;;5.40;;
69588;SDS011;56792;50.644;17.984;2022-07-29T18:05:00;7.20;;;5.50;;
69588;SDS011;56792;50.644;17.984;2022-07-29T18:07:30;8.70;;;5.80;;
69588;SDS011;56792;50.644;17.984;2022-07-29T18:10:00;8.60;;;6.70;;
69588;SDS011;56792;50.644;17.984;2022-07-29T18:12:32;9.20;;;5.60;;
69588;SDS011;56792;50.644;17.984;2022-07-29T18:15:10;7.40;;;5.00;;
69588;SDS011;56792;50.644;17.984;2022-07-29T18:17:42;10.90;;;5.60;;
69588;SDS011;56792;50.644;17.984;2022-07-29T18:20:22;9.50;;;6.10;;
69588;SDS011;56792;50.644;17.984;2022-07-29T18:26:04;16.60;;;8.60;;
69588;SDS011;56792;50.644;17.984;2022-07-29T18:29:11;13.00;;;7.90;;
69588;SDS011;56792;50.644;17.984;2022-07-29T18:35:10;8.40;;;6.60;;
69588;SDS011;56792;50.644;17.984;2022-07-29T18:37:53;10.50;;;6.60;;
69588;SDS011;56792;50.644;17.984;2022-07-29T18:40:53;10.30;;;7.60;;
69588;SDS011;56792;50.644;17.984;2022-07-29T18:43:43;10.00;;;7.40;;
69588;SDS011;56792;50.644;17.984;2022-07-29T18:47:10;9.10;;;7.40;;
69588;SDS011;56792;50.644;17.984;2022-07-29T18:50:02;12.50;;;7.50;;
69588;SDS011;56792;50.644;17.984;2022-07-29T18:53:16;11.60;;;7.20;;
69588;SDS011;56792;50.644;17.984;2022-07-29T18:56:32;9.50;;;6.20;;
69588;SDS011;56792;50.644;17.984;2022-07-29T18:59:16;10.40;;;6.10;;
69588;SDS011;56792;50.644;17.984;2022-07-29T19:02:01;11.00;;;6.80;;
69588;SDS011;56792;50.644;17.984;2022-07-29T19:31:55;8.60;;;6.10;;
69588;SDS011;56792;50.644;17.984;2022-07-29T19:41:13;8.50;;;5.50;;
69588;SDS011;56792;50.644;17.984;2022-07-29T19:43:53;10.10;;;7.30;;
69588;SDS011;56792;50.644;17.984;2022-07-29T19:46:32;12.30;;;9.10;;
69588;SDS011;56792;50.644;17.984;2022-07-29T19:49:09;11.70;;;8.20;;
69588;SDS011;56792;50.644;17.984;2022-07-29T20:13:51;10.00;;;7.60;;
69588;SDS011;56792;50.644;17.984;2022-07-29T20:16:29;14.10;;;12.50;;
69588;SDS011;56792;50.644;17.984;2022-07-29T20:19:10;11.40;;;8.50;;
69588;SDS011;56792;50.644;17.984;2022-07-29T20:21:53;15.40;;;10.70;;
69588;SDS011;56792;50.644;17.984;2022-07-29T20:51:40;12.10;;;8.80;;
69588;SDS011;56792;50.644;17.984;2022-07-29T20:54:10;11.20;;;7.30;;
69588;SDS011;56792;50.644;17.984;2022-07-29T20:56:41;10.90;;;8.50;;
69588;SDS011;56792;50.644;17.984;2022-07-29T20:59:14;11.60;;;8.50;;
69588;SDS011;56792;50.644;17.984;2022-07-29T21:27:37;12.50;;;6.60;;
69588;SDS011;56792;50.644;17.984;2022-07-29T21:30:29;13.80;;;10.10;;
69588;SDS011;56792;50.644;17.984;2022-07-29T21:33:01;9.40;;;6.50;;
69588;SDS011;56792;50.644;17.984;2022-07-29T21:35:32;11.70;;;6.70;;
69588;SDS011;56792;50.644;17.984;2022-07-29T21:59:07;16.00;;;10.00;;
69588;SDS011;56792;50.644;17.984;2022-07-29T22:01:41;8.30;;;6.30;;
69588;SDS011;56792;50.644;17.984;2022-07-29T22:25:25;9.10;;;6.80;;
